Aumsville, Oregon
Current Conditions -  °F | °C
As of 4:26 AM on Saturday 25 Oct 2014 (Local Time) from KSLE Reporting Station
Haze Haze  
Wind Chill: 49°   Ceiling: 400
Heat Index: 49°   Visibility: 4mi
Dew Point: 48°   Wind: 3mph
Humidity: 97%   Direction: 230°SW
Pressure: 29.51"   Gusts: NA
Location:  44.84°N, 122.87°W
Report Text: KSLE 251126Z AUTO 23003KT 4SM BR OVC004 09/09 A2951 RMK AO2 T00940089
Loading
Personal Weather Stations






























Interactive Weather Map
Tropical Storm Tracking
New forecast layout! Learn more

10-Day Weather Forecast

Advertisements
Track Severe Weather on mobile